DW7259 Weather Reports


Display with metric or nautical units.
time (UTC)temp
F
wind
direction
speed
MPH
gust
MPH
rain 1hr
in
rain 24hr
in
rain mn
in
humidity
%
barometer
mb
20200531051509 57 262 0.0 0.0 0.00 0.00 0.00 86 1013.2
20200531050007 57 262 0.0 0.0 0.00 0.00 0.00 85 1013.1
20200531044517 58 262 0.0 0.0 0.00 0.00 0.00 85 1013.1
20200531043019 58 262 0.0 2.0 0.00 0.00 0.00 84 1012.9
20200531041508 58 262 0.0 2.0 0.00 0.00 0.00 83 1012.8
20200531040019 59 262 0.0 1.0 0.00 0.00 0.00 82 1012.7
20200531034506 59 262 0.0 1.0 0.00 0.00 0.00 81 1012.3
20200531033012 60 262 0.0 1.0 0.00 0.00 0.00 79 1012.3
20200531031528 60 262 0.0 2.0 0.00 0.00 0.00 78 1012.3
20200531030007 61 262 0.0 3.0 0.00 0.00 0.00 76 1012.2
20200531024504 62 262 0.0 4.0 0.00 0.00 0.00 74 1012.4
20200531023021 63 264 0.0 2.0 0.00 0.00 0.00 72 1012.4
20200531021502 64 228 1.0 4.0 0.00 0.00 0.00 70 1012.4
20200531020001 65 208 1.0 5.0 0.00 0.00 0.00 68 1012.3
20200531014802 65 211 0.0 3.0 0.00 0.00 0.00 68 1012.4
20200531013132 65 207 0.0 7.0 0.00 0.00 0.00 68 1012.3
20200531011657 66 230 1.0 8.0 0.00 0.00 0.00 65 1012.2
20200531010206 67 301 2.0 10.0 0.00 0.00 0.00 63 1012.3
20200531004637 68 226 2.0 12.0 0.00 0.00 0.00 60 1012.3
20200531003137 69 220 1.0 8.0 0.00 0.00 0.00 59 1012.3
20200531001627 72 206 4.0 12.0 0.00 0.00 0.00 53 1012.4
20200531000127 73 229 3.0 9.0 0.00 0.00 0.00 51 1012.4
20200530234642 74 171 1.0 17.0 0.00 0.00 0.00 49 1012.4
20200530233130 75 245 3.0 11.0 0.00 0.00 0.00 44 1012.4
20200530231851 75 230 3.0 12.0 0.00 0.00 0.00 42 1012.5
20200530230139 75 221 3.0 11.0 0.00 0.00 0.00 40 1012.5
20200530224620 76 240 5.0 10.0 0.00 0.00 0.00 40 1012.6
20200530223242 76 210 2.0 9.0 0.00 0.00 0.00 41 1012.8
20200530221712 76 217 3.0 11.0 0.00 0.00 0.00 41 1012.8
20200530220121 76 223 3.0 11.0 0.00 0.00 0.00 45 1012.9
20200530214609 75 181 5.0 11.0 0.00 0.00 0.00 46 1013.0
20200530213106 74 222 4.0 9.0 0.00 0.00 0.00 49 1013.1
20200530211621 74 218 5.0 10.0 0.00 0.00 0.00 48 1013.2
20200530210053 73 205 3.0 10.0 0.00 0.00 0.00 52 1013.3
20200530204655 74 241 3.0 8.0 0.00 0.00 0.00 51 1013.5
20200530203048 72 225 2.0 10.0 0.00 0.00 0.00 55 1013.5
20200530201558 72 195 5.0 11.0 0.00 0.00 0.00 52 1013.8
20200530200137 73 193 1.0 9.0 0.00 0.00 0.00 55 1013.9
20200530194600 73 236 0.0 7.0 0.00 0.00 0.00 55 1013.9
20200530193105 70 185 0.0 6.0 0.00 0.00 0.00 60 1013.9
20200530191534 69 218 3.0 7.0 0.00 0.00 0.00 61 1014.0
20200530190110 69 218 2.0 8.0 0.00 0.00 0.00 63 1014.2
20200530184527 69 224 1.0 7.0 0.00 0.00 0.00 66 1014.3
20200530183026 68 217 1.0 5.0 0.00 0.00 0.00 70 1014.4
20200530181539 66 210 3.0 7.0 0.00 0.00 0.00 70 1014.4
20200530180016 65 257 0.0 6.0 0.00 0.00 0.00 74 1014.4
20200530174525 64 223 0.0 5.0 0.00 0.00 0.00 74 1014.5
20200530173008 64 224 3.0 5.0 0.00 0.00 0.00 73 1014.5
20200530171523 64 227 0.0 4.0 0.00 0.00 0.00 74 1014.5
20200530170002 62 227 0.0 6.0 0.00 0.00 0.00 75 1014.5
20200530164502 62 227 2.0 5.0 0.00 0.00 0.00 75 1014.4
20200530163136 61 227 1.0 3.0 0.00 0.00 0.00 77 1014.6
20200530161622 61 227 0.0 2.0 0.00 0.00 0.00 79 1014.7
20200530160124 60 227 1.0 4.0 0.00 0.00 0.00 81 1014.5
20200530154625 60 227 0.0 3.0 0.00 0.00 0.00 82 1014.5
20200530153153 59 227 1.0 6.0 0.00 0.00 0.00 85 1014.5
20200530151652 58 227 1.0 4.0 0.00 0.00 0.00 88 1014.5
20200530150129 57 227 0.0 1.0 0.00 0.00 0.00 90 1014.5
20200530144558 57 227 0.0 4.0 0.00 0.00 0.00 90 1014.4
20200530143048 57 227 0.0 3.0 0.00 0.00 0.00 91 1014.3
20200530141610 57 227 0.0 3.0 0.00 0.00 0.00 91 1014.3
20200530140113 57 227 0.0 2.0 0.00 0.00 0.00 91 1014.2
20200530134606 57 227 0.0 3.0 0.00 0.00 0.00 91 1014.0
20200530133130 57 227 2.0 5.0 0.00 0.00 0.00 92 1014.0
20200530131652 56 227 0.0 2.0 0.00 0.00 0.00 92 1013.8
20200530130104 56 227 0.0 4.0 0.00 0.00 0.00 92 1013.6
20200530124643 57 227 0.0 4.0 0.00 0.00 0.00 91 1013.5
20200530123106 57 227 1.0 4.0 0.00 0.00 0.00 91 1013.5
20200530121614 57 227 0.0 2.0 0.00 0.00 0.00 90 1013.4
20200530120152 57 227 1.0 4.0 0.00 0.00 0.00 90 1013.5
20200530114602 58 227 0.0 3.0 0.00 0.00 0.00 90 1013.4
20200530113036 58 227 0.0 2.0 0.00 0.00 0.00 90 1013.3
20200530111617 58 227 0.0 4.0 0.00 0.00 0.00 90 1013.3
20200530110059 58 227 1.0 4.0 0.00 0.00 0.00 89 1013.4
20200530104547 58 227 0.0 2.0 0.00 0.00 0.00 89 1013.5
20200530103110 58 227 0.0 2.0 0.00 0.00 0.00 89 1013.6
20200530101556 58 227 0.0 0.0 0.00 0.00 0.00 89 1013.6
20200530100113 58 227 0.0 0.0 0.00 0.00 0.00 89 1013.6
20200530094601 58 227 0.0 0.0 0.00 0.00 0.00 88 1013.6
20200530093051 59 227 0.0 0.0 0.00 0.00 0.00 87 1013.5
20200530090042 59 227 0.0 0.0 0.00 0.00 0.00 88 1013.9
20200530084604 59 227 0.0 0.0 0.00 0.00 0.00 88 1014.3
20200530083058 59 227 0.0 1.0 0.00 0.00 0.00 88 1014.6
20200530081737 58 227 0.0 0.0 0.00 0.00 0.00 87 1014.6
20200530080031 58 227 0.0 1.0 0.00 0.00 0.00 87 1014.9
20200530074533 58 227 0.0 2.0 0.00 0.00 0.00 87 1015.1
20200530073043 58 227 0.0 0.0 0.00 0.00 0.00 88 1015.1
20200530071516 58 227 0.0 0.0 0.00 0.00 0.00 89 1015.2
20200530070048 58 227 0.0 0.0 0.00 0.00 0.00 90 1015.2
20200530064515 58 227 0.0 4.0 0.00 0.00 0.00 90 1015.2
20200530063028 58 227 0.0 3.0 0.00 0.00 0.00 90 1015.0
20200530061510 58 227 0.0 3.0 0.00 0.00 0.00 89 1015.0
20200530060010 59 227 0.0 5.0 0.00 0.00 0.00 88 1015.0
20200530054509 59 227 0.0 4.0 0.00 0.00 0.00 88 1014.9
20200530053009 59 227 0.0 3.0 0.00 0.00 0.00 88 1014.9